Time;durP1;ratioP1;P1;durP2;ratioP2;P2;SDS_P1;SDS_P2;PMS_P1;PMS_P2;Temp;Humidity;BMP_temperature;BMP_pressure;BME280_temperature;BME280_humidity;BME280_pressure;Samples;Min_cycle;Max_cycle;Signal;HPM_P1;HPM_P2
2021/08/23 00:01:23;;;;;;;6.33;5.73;;;15.60;99.90;;;;;;5000505;28;20447;-84
2021/08/23 00:03:50;;;;;;;5.70;5.03;;;15.50;99.90;;;;;;5000932;28;20463;-84
2021/08/23 00:06:16;;;;;;;7.00;5.00;;;15.50;99.90;;;;;;5000988;28;20441;-84
2021/08/23 00:08:43;;;;;;;5.93;5.43;;;15.50;99.90;;;;;;5000819;28;20449;-84
2021/08/23 00:11:11;;;;;;;7.27;5.90;;;15.50;99.90;;;;;;5000660;28;20542;-84
2021/08/23 00:13:38;;;;;;;5.40;4.90;;;15.50;99.90;;;;;;5000222;28;20515;-84
2021/08/23 00:16:05;;;;;;;5.77;5.17;;;15.50;99.90;;;;;;5000726;28;20444;-85
2021/08/23 00:18:32;;;;;;;5.53;5.03;;;15.50;99.90;;;;;;5000624;28;20521;-84
2021/08/23 00:21:02;;;;;;;5.70;5.20;;;15.60;99.90;;;;;;5000545;28;20502;-84
2021/08/23 00:23:35;;;;;;;6.47;5.30;;;15.60;99.90;;;;;;4999960;28;20445;-84
2021/08/23 00:26:02;;;;;;;5.70;5.20;;;15.60;99.90;;;;;;5000681;28;20472;-84
2021/08/23 00:28:30;;;;;;;6.40;5.67;;;15.60;99.90;;;;;;4995069;28;20549;-86
2021/08/23 00:30:57;;;;;;;8.00;5.90;;;15.60;99.90;;;;;;4983400;28;20495;-86
2021/08/23 00:33:24;;;;;;;5.87;5.37;;;15.60;99.90;;;;;;4983738;28;20455;-86
2021/08/23 00:35:50;;;;;;;5.80;5.23;;;15.60;99.90;;;;;;4985128;28;20455;-86
2021/08/23 00:38:17;;;;;;;5.57;5.07;;;15.50;99.90;;;;;;4982560;28;20479;-86
2021/08/23 00:40:45;;;;;;;6.70;6.00;;;15.50;99.90;;;;;;4983344;28;20448;-86
2021/08/23 00:43:11;;;;;;;6.00;4.90;;;15.50;99.90;;;;;;4982502;28;20458;-86
2021/08/23 00:45:40;;;;;;;5.00;4.60;;;15.40;99.90;;;;;;4981342;28;20840;-86
2021/08/23 00:48:06;;;;;;;6.50;5.10;;;15.40;99.90;;;;;;4981919;28;20472;-86
2021/08/23 00:50:33;;;;;;;5.37;4.93;;;15.40;99.90;;;;;;4979782;28;20488;-86
2021/08/23 00:53:00;;;;;;;5.53;4.90;;;15.50;99.90;;;;;;4979787;28;20455;-86
2021/08/23 00:55:27;;;;;;;5.70;5.00;;;15.60;99.90;;;;;;4978392;28;20798;-86
2021/08/23 00:57:54;;;;;;;5.37;4.87;;;15.60;99.90;;;;;;4976615;28;20475;-86
2021/08/23 01:00:21;;;;;;;8.00;4.83;;;15.60;99.90;;;;;;4978247;28;20460;-86
2021/08/23 01:02:55;;;;;;;4.50;4.10;;;15.60;99.90;;;;;;4977632;28;20460;-86
2021/08/23 01:05:25;;;;;;;6.17;4.67;;;15.50;99.90;;;;;;4978018;28;20465;-86
2021/08/23 01:07:56;;;;;;;4.90;4.50;;;15.50;99.90;;;;;;4977163;28;20983;-86
2021/08/23 01:10:28;;;;;;;5.13;4.73;;;15.50;99.90;;;;;;4978142;28;20495;-86
2021/08/23 01:12:56;;;;;;;7.20;5.70;;;15.50;99.90;;;;;;4975539;28;20452;-86
2021/08/23 01:15:23;;;;;;;4.50;4.20;;;15.50;99.90;;;;;;4978550;28;20469;-86
2021/08/23 01:17:52;;;;;;;4.67;4.27;;;15.50;99.90;;;;;;4979268;28;20477;-86
2021/08/23 01:20:19;;;;;;;5.20;4.60;;;15.50;99.90;;;;;;4978823;28;20452;-86
2021/08/23 01:22:48;;;;;;;4.80;4.40;;;15.40;99.90;;;;;;4978260;28;20460;-86
2021/08/23 01:25:19;;;;;;;5.30;4.80;;;15.40;99.90;;;;;;4978412;28;20467;-86
2021/08/23 01:27:59;;;;;;;4.80;4.40;;;15.30;99.90;;;;;;4970591;28;20472;-86
2021/08/23 01:30:32;;;;;;;7.10;4.40;;;15.30;99.90;;;;;;4977960;28;20484;-86
2021/08/23 01:33:00;;;;;;;4.60;4.13;;;15.30;99.90;;;;;;4976893;28;20459;-86
2021/08/23 01:35:28;;;;;;;4.80;4.40;;;15.40;99.90;;;;;;4978162;28;20454;-86
2021/08/23 01:37:55;;;;;;;5.20;4.80;;;15.30;99.90;;;;;;4977528;28;20480;-86
2021/08/23 01:40:22;;;;;;;5.90;4.40;;;15.40;99.90;;;;;;4978001;28;20479;-86
2021/08/23 01:42:49;;;;;;;4.87;4.50;;;15.40;99.90;;;;;;4976191;28;20475;-85
2021/08/23 01:45:16;;;;;;;5.80;4.90;;;15.40;99.90;;;;;;4977341;28;20850;-85
2021/08/23 01:47:42;;;;;;;4.73;4.40;;;15.40;99.90;;;;;;4977577;28;20476;-85
2021/08/23 01:50:11;;;;;;;4.97;4.50;;;15.50;99.90;;;;;;4977348;28;20479;-85
2021/08/23 01:52:38;;;;;;;7.73;4.60;;;15.50;99.90;;;;;;4976743;28;21043;-86
2021/08/23 01:55:06;;;;;;;5.00;4.50;;;15.60;99.90;;;;;;4977239;28;20467;-87
2021/08/23 01:57:32;;;;;;;5.30;4.60;;;15.50;99.90;;;;;;4977372;28;20472;-86
2021/08/23 01:59:59;;;;;;;4.80;4.50;;;15.50;99.90;;;;;;4977336;28;20453;-86
2021/08/23 02:02:26;;;;;;;5.73;5.17;;;15.50;99.90;;;;;;4977489;28;20456;-86
2021/08/23 02:04:52;;;;;;;4.07;3.73;;;15.60;99.90;;;;;;4977528;28;20463;-86
2021/08/23 02:07:20;;;;;;;5.17;3.83;;;15.60;99.90;;;;;;4977842;28;20454;-86
2021/08/23 02:09:47;;;;;;;5.90;4.70;;;15.60;99.90;;;;;;4976754;28;21032;-86
2021/08/23 02:12:14;;;;;;;7.43;4.70;;;15.60;99.90;;;;;;4977002;28;20473;-85
2021/08/23 02:14:41;;;;;;;4.60;4.17;;;15.60;99.90;;;;;;4978620;28;20452;-86
2021/08/23 02:17:07;;;;;;;5.47;4.97;;;15.60;99.90;;;;;;4979178;28;20451;-85
2021/08/23 02:19:34;;;;;;;5.70;4.20;;;15.60;99.90;;;;;;4978936;28;20471;-86
2021/08/23 02:22:03;;;;;;;5.03;4.63;;;15.60;99.90;;;;;;4977737;28;20452;-86
2021/08/23 02:24:33;;;;;;;5.17;4.77;;;15.60;99.90;;;;;;4976784;28;20456;-85
2021/08/23 02:27:00;;;;;;;4.10;3.80;;;15.60;99.90;;;;;;4976668;28;20466;-86
2021/08/23 02:29:26;;;;;;;6.90;4.27;;;15.60;99.90;;;;;;4975699;28;20488;-86
2021/08/23 02:31:53;;;;;;;5.07;4.47;;;15.50;99.90;;;;;;4974688;28;20487;-86
2021/08/23 02:34:20;;;;;;;4.93;4.53;;;15.60;99.90;;;;;;4974684;28;20483;-86
2021/08/23 02:36:46;;;;;;;6.17;3.87;;;15.50;99.90;;;;;;4974901;28;20478;-86
2021/08/23 02:39:13;;;;;;;5.47;4.47;;;15.50;99.90;;;;;;4975049;28;20530;-86
2021/08/23 02:41:41;;;;;;;6.23;5.50;;;15.50;99.90;;;;;;4974081;28;21019;-85
2021/08/23 02:44:08;;;;;;;4.40;3.97;;;15.50;99.90;;;;;;4975000;28;20460;-86
2021/08/23 02:46:35;;;;;;;4.80;4.40;;;15.50;99.90;;;;;;4975498;28;20460;-86
2021/08/23 02:49:02;;;;;;;4.63;4.23;;;15.50;99.90;;;;;;4975146;28;20479;-86
2021/08/23 02:51:29;;;;;;;4.93;4.47;;;15.50;99.90;;;;;;4974534;28;20577;-86
2021/08/23 02:53:55;;;;;;;6.70;4.00;;;15.50;99.90;;;;;;4974186;28;20458;-86
2021/08/23 02:56:22;;;;;;;6.40;4.37;;;15.50;99.90;;;;;;4974989;28;20461;-86
2021/08/23 02:58:50;;;;;;;4.43;4.03;;;15.50;99.90;;;;;;4974311;28;20472;-86
2021/08/23 03:01:17;;;;;;;8.37;4.97;;;15.40;99.90;;;;;;4975460;28;20454;-86
2021/08/23 03:03:44;;;;;;;4.77;4.20;;;15.40;99.90;;;;;;4974185;28;20458;-86
2021/08/23 03:06:12;;;;;;;4.13;3.70;;;15.40;99.90;;;;;;4974775;28;20457;-86
2021/08/23 03:08:39;;;;;;;4.87;4.47;;;15.40;99.90;;;;;;4974296;28;20483;-86
2021/08/23 03:11:07;;;;;;;5.83;4.00;;;15.40;99.90;;;;;;4975104;28;20488;-86
2021/08/23 03:13:35;;;;;;;5.33;4.83;;;15.40;99.90;;;;;;4974658;28;20452;-86
2021/08/23 03:16:04;;;;;;;5.10;4.50;;;15.40;99.90;;;;;;4974628;28;20457;-86
2021/08/23 03:18:31;;;;;;;7.60;3.97;;;15.40;99.90;;;;;;4975434;28;20480;-86
2021/08/23 03:20:59;;;;;;;4.37;3.97;;;15.30;99.90;;;;;;4974969;28;20452;-86
2021/08/23 03:23:26;;;;;;;5.87;5.27;;;15.30;99.90;;;;;;4977997;28;20546;-86
2021/08/23 03:25:53;;;;;;;4.80;4.30;;;15.40;99.90;;;;;;4979089;28;20484;-85
2021/08/23 03:28:20;;;;;;;3.90;3.60;;;15.40;99.90;;;;;;4979342;28;20484;-86
2021/08/23 03:30:46;;;;;;;5.20;4.70;;;15.50;99.90;;;;;;4979636;28;20515;-86
2021/08/23 03:33:15;;;;;;;4.97;4.30;;;15.50;99.90;;;;;;4978192;28;20953;-86
2021/08/23 03:35:42;;;;;;;5.20;4.40;;;15.50;99.90;;;;;;4978209;28;20459;-86
2021/08/23 03:38:09;;;;;;;4.40;4.03;;;15.50;99.90;;;;;;4978138;28;20472;-86
2021/08/23 03:40:36;;;;;;;5.23;4.80;;;15.40;99.90;;;;;;4978152;28;20954;-86
2021/08/23 03:43:02;;;;;;;4.03;3.73;;;15.40;99.90;;;;;;4976896;28;20463;-86
2021/08/23 03:45:29;;;;;;;4.50;4.20;;;15.40;99.90;;;;;;4975804;28;20459;-86
2021/08/23 03:47:56;;;;;;;5.37;4.80;;;15.40;99.90;;;;;;4976767;28;20475;-86
2021/08/23 03:50:24;;;;;;;4.63;3.90;;;15.50;99.90;;;;;;4976879;28;20456;-86
2021/08/23 03:52:51;;;;;;;5.00;4.60;;;15.50;99.90;;;;;;4976136;28;20540;-86
2021/08/23 03:55:18;;;;;;;5.53;4.87;;;15.50;99.90;;;;;;4976588;28;20478;-86
2021/08/23 03:57:45;;;;;;;6.53;5.83;;;15.50;99.90;;;;;;4977069;28;21023;-86
2021/08/23 04:00:12;;;;;;;4.47;4.07;;;15.50;99.90;;;;;;4978743;28;20456;-86
2021/08/23 04:02:39;;;;;;;5.33;4.50;;;15.50;99.90;;;;;;4977636;28;20452;-85
2021/08/23 04:05:07;;;;;;;5.50;4.97;;;15.60;99.90;;;;;;4979282;28;20463;-86
2021/08/23 04:07:35;;;;;;;4.30;3.57;;;15.50;99.90;;;;;;4979112;28;21002;-86
2021/08/23 04:10:02;;;;;;;5.93;4.50;;;15.50;99.90;;;;;;4980390;28;20847;-86
2021/08/23 04:12:29;;;;;;;4.53;4.13;;;15.50;99.90;;;;;;4978990;28;20519;-86
2021/08/23 04:14:55;;;;;;;9.13;4.53;;;15.50;99.90;;;;;;4979512;28;20461;-85
2021/08/23 04:17:22;;;;;;;4.63;4.03;;;15.40;99.90;;;;;;4980392;28;20452;-85
2021/08/23 04:19:49;;;;;;;5.00;4.63;;;15.40;99.90;;;;;;4980156;28;20818;-85
2021/08/23 04:22:16;;;;;;;4.53;4.23;;;15.50;99.90;;;;;;4979159;28;20444;-85
2021/08/23 04:24:44;;;;;;;5.33;4.87;;;15.50;99.90;;;;;;4979766;28;20453;-85
2021/08/23 04:27:11;;;;;;;8.00;5.07;;;15.50;99.90;;;;;;4980306;28;20459;-85
2021/08/23 04:29:37;;;;;;;5.40;4.00;;;15.50;99.90;;;;;;4979311;28;21018;-85
2021/08/23 04:32:05;;;;;;;5.10;3.70;;;15.50;99.90;;;;;;4978313;28;20550;-85
2021/08/23 04:34:31;;;;;;;5.57;4.10;;;15.50;99.90;;;;;;4978367;28;20458;-85
2021/08/23 04:37:03;;;;;;;4.10;3.80;;;15.60;99.90;;;;;;4978767;28;20822;-85
2021/08/23 04:39:30;;;;;;;5.77;4.50;;;15.50;99.90;;;;;;4978676;28;20849;-85
2021/08/23 04:41:59;;;;;;;4.33;4.00;;;15.40;99.90;;;;;;4978159;28;20448;-85
2021/08/23 04:44:26;;;;;;;4.33;4.03;;;15.40;99.90;;;;;;4977816;28;20456;-85
2021/08/23 04:46:53;;;;;;;4.20;3.70;;;15.50;99.90;;;;;;4977554;28;20479;-85
2021/08/23 04:49:19;;;;;;;4.43;3.97;;;15.50;99.90;;;;;;4977759;28;20467;-85
2021/08/23 04:51:46;;;;;;;4.30;3.90;;;15.50;99.90;;;;;;4977189;28;20503;-85
2021/08/23 04:54:13;;;;;;;4.13;3.83;;;15.60;99.90;;;;;;4976714;28;20979;-85
2021/08/23 04:56:40;;;;;;;3.43;3.23;;;15.60;99.90;;;;;;4976556;28;20460;-85
2021/08/23 04:59:08;;;;;;;4.70;4.23;;;15.60;99.90;;;;;;4976408;28;20487;-85
2021/08/23 05:01:34;;;;;;;3.73;2.93;;;15.70;99.90;;;;;;4975497;28;20479;-85
2021/08/23 05:04:01;;;;;;;5.50;4.03;;;15.70;99.90;;;;;;4975927;28;20445;-85
2021/08/23 05:06:28;;;;;;;4.87;4.47;;;15.70;99.90;;;;;;4975701;28;20461;-86
2021/08/23 05:08:55;;;;;;;6.90;4.20;;;15.80;99.90;;;;;;4975879;28;20476;-86
2021/08/23 05:11:22;;;;;;;4.47;4.07;;;15.80;99.90;;;;;;4975710;28;20494;-86
2021/08/23 05:13:48;;;;;;;4.80;3.90;;;15.80;99.90;;;;;;4974960;28;20455;-87
2021/08/23 05:16:16;;;;;;;4.93;4.50;;;15.80;99.90;;;;;;4976884;28;20456;-87
2021/08/23 05:18:43;;;;;;;5.30;4.80;;;15.80;99.90;;;;;;4978919;28;20478;-86
2021/08/23 05:21:10;;;;;;;4.87;4.43;;;15.80;99.90;;;;;;4982354;28;20452;-86
2021/08/23 05:23:37;;;;;;;4.57;3.70;;;15.80;99.90;;;;;;4983317;28;20452;-86
2021/08/23 05:26:07;;;;;;;5.77;4.40;;;15.90;99.90;;;;;;4985474;28;20459;-86
2021/08/23 05:28:33;;;;;;;3.90;3.60;;;16.00;99.90;;;;;;4985663;28;20473;-86
2021/08/23 05:31:00;;;;;;;4.37;3.97;;;15.90;99.90;;;;;;4983714;28;20494;-86
2021/08/23 05:33:28;;;;;;;5.67;4.47;;;15.90;99.90;;;;;;4982195;28;20453;-86
2021/08/23 05:35:55;;;;;;;3.80;3.50;;;16.00;99.90;;;;;;4983074;28;20943;-86
2021/08/23 05:38:22;;;;;;;5.10;4.47;;;15.90;99.90;;;;;;4983077;28;20477;-86
2021/08/23 05:40:49;;;;;;;4.53;3.77;;;15.90;99.90;;;;;;4982561;28;20462;-85
2021/08/23 05:43:15;;;;;;;4.93;4.53;;;16.00;99.90;;;;;;4980674;28;20464;-86
2021/08/23 05:45:42;;;;;;;5.70;4.17;;;16.00;99.90;;;;;;4981085;28;20461;-86
2021/08/23 05:48:09;;;;;;;3.90;3.23;;;16.00;99.90;;;;;;4980135;28;20483;-86
2021/08/23 05:50:39;;;;;;;4.10;3.70;;;16.10;99.90;;;;;;4977152;28;20986;-88
2021/08/23 05:53:06;;;;;;;4.57;3.80;;;16.10;99.90;;;;;;4975059;28;20862;-88
2021/08/23 05:55:34;;;;;;;6.27;4.33;;;16.20;99.90;;;;;;4974982;28;20531;-88
2021/08/23 05:58:03;;;;;;;4.93;4.40;;;16.20;99.90;;;;;;4974944;28;20484;-88
2021/08/23 06:00:30;;;;;;;6.07;4.60;;;16.30;99.90;;;;;;4974153;28;20850;-87
2021/08/23 06:02:57;;;;;;;5.30;4.80;;;16.30;99.90;;;;;;4973970;28;20453;-88
2021/08/23 06:06:04;;;;;;;4.77;4.37;;;16.40;99.90;;;;;;4974551;28;20455;-87
2021/08/23 06:08:37;;;;;;;5.13;4.50;;;16.40;99.90;;;;;;4973746;28;20491;-85
2021/08/23 06:11:04;;;;;;;5.50;5.00;;;16.50;99.90;;;;;;4973586;28;20460;-85
2021/08/23 06:13:34;;;;;;;4.93;4.50;;;16.60;99.90;;;;;;4973222;28;20460;-85
2021/08/23 06:16:00;;;;;;;5.47;4.30;;;16.70;99.90;;;;;;4973823;28;20453;-85
2021/08/23 06:18:27;;;;;;;4.73;3.97;;;16.70;99.90;;;;;;4974864;28;20488;-83
2021/08/23 06:22:08;;;;;;;3.60;3.30;;;16.80;99.90;;;;;;4974287;28;20463;-87
2021/08/23 06:24:38;;;;;;;6.07;3.70;;;16.90;99.90;;;;;;4952579;28;20506;-86
2021/08/23 06:27:07;;;;;;;4.00;3.70;;;17.00;99.90;;;;;;4973301;28;20957;-85
